createdAt,value
2023-05-09T00:00:57.035Z,996.71
2023-05-09T00:01:56.993Z,996.69
2023-05-09T00:02:56.990Z,996.70
2023-05-09T00:03:56.956Z,996.70
2023-05-09T00:04:56.948Z,996.75
2023-05-09T00:05:56.939Z,996.75
2023-05-09T00:06:56.954Z,996.72
2023-05-09T00:07:56.895Z,996.77
2023-05-09T00:08:56.901Z,996.69
2023-05-09T00:09:56.897Z,996.73
2023-05-09T00:10:56.881Z,996.66
2023-05-09T00:11:56.903Z,996.68
2023-05-09T00:12:57.022Z,996.69
2023-05-09T00:13:56.851Z,996.68
2023-05-09T00:14:56.887Z,996.67
2023-05-09T00:15:56.858Z,996.65
2023-05-09T00:16:56.928Z,996.63
2023-05-09T00:17:56.891Z,996.66
2023-05-09T00:18:56.839Z,996.64
2023-05-09T00:19:56.840Z,996.64
2023-05-09T00:20:56.822Z,996.61
2023-05-09T00:21:56.830Z,996.56
2023-05-09T00:22:56.799Z,996.61
2023-05-09T00:23:56.777Z,996.61
2023-05-09T00:24:56.791Z,996.62
2023-05-09T00:25:56.791Z,996.54
2023-05-09T00:26:56.761Z,996.57
2023-05-09T00:27:56.762Z,996.53
2023-05-09T00:28:56.850Z,996.52
2023-05-09T00:29:56.760Z,996.52
2023-05-09T00:30:56.771Z,996.53
2023-05-09T00:31:56.767Z,996.57
2023-05-09T00:32:56.789Z,996.51
2023-05-09T00:33:56.747Z,996.49
2023-05-09T00:34:56.718Z,996.51
2023-05-09T00:35:56.727Z,996.47
2023-05-09T00:36:56.686Z,996.42
2023-05-09T00:37:56.702Z,996.47
2023-05-09T00:38:56.702Z,996.50
2023-05-09T00:39:56.691Z,996.46
2023-05-09T00:40:56.673Z,996.40
2023-05-09T00:41:56.672Z,996.49
2023-05-09T00:42:56.672Z,996.44
2023-05-09T00:43:56.667Z,996.48
2023-05-09T00:44:56.694Z,996.48
2023-05-09T00:45:56.667Z,996.42
2023-05-09T00:46:56.614Z,996.41
2023-05-09T00:47:56.716Z,996.44
2023-05-09T00:48:56.612Z,996.45
2023-05-09T00:49:56.601Z,996.49
2023-05-09T00:50:56.621Z,996.47
2023-05-09T00:51:56.600Z,996.44
2023-05-09T00:52:56.620Z,996.45
2023-05-09T00:53:56.671Z,996.44
2023-05-09T00:54:56.576Z,996.49
2023-05-09T00:55:56.575Z,996.45
2023-05-09T00:56:56.534Z,996.42
2023-05-09T00:57:56.542Z,996.44
2023-05-09T00:58:56.562Z,996.40
2023-05-09T00:59:56.553Z,996.39
2023-05-09T01:00:56.691Z,996.40
2023-05-09T01:01:56.493Z,996.38
2023-05-09T01:02:56.643Z,996.41
2023-05-09T01:03:56.508Z,996.37
2023-05-09T01:04:56.483Z,996.37
2023-05-09T01:05:56.510Z,996.36
2023-05-09T01:06:56.479Z,996.32
2023-05-09T01:07:56.452Z,996.35
2023-05-09T01:08:56.467Z,996.39
2023-05-09T01:09:56.497Z,996.34
2023-05-09T01:10:56.433Z,996.32
2023-05-09T01:11:56.432Z,996.29
2023-05-09T01:12:56.455Z,996.28
2023-05-09T01:13:56.407Z,996.27
2023-05-09T01:14:56.452Z,996.36
2023-05-09T01:15:56.438Z,996.30
2023-05-09T01:16:56.479Z,996.25
2023-05-09T01:17:56.466Z,996.27
2023-05-09T01:18:56.408Z,996.33
2023-05-09T01:19:56.409Z,996.25
2023-05-09T01:20:56.359Z,996.25
2023-05-09T01:21:56.350Z,996.24
2023-05-09T01:22:56.349Z,996.25
2023-05-09T01:23:56.357Z,996.28
2023-05-09T01:24:56.379Z,996.26
2023-05-09T01:25:56.321Z,996.27
2023-05-09T01:26:56.332Z,996.21
2023-05-09T01:27:56.304Z,996.24
2023-05-09T01:28:56.320Z,996.22
2023-05-09T01:29:56.314Z,996.26
2023-05-09T01:30:56.452Z,996.24
2023-05-09T01:31:56.282Z,996.19
2023-05-09T01:32:56.419Z,996.19
2023-05-09T01:33:56.282Z,996.22
2023-05-09T01:34:56.257Z,996.18
2023-05-09T01:35:56.262Z,996.13
2023-05-09T01:36:56.253Z,996.14
2023-05-09T01:37:56.239Z,996.09
2023-05-09T01:38:56.283Z,996.12
2023-05-09T01:39:56.214Z,996.10
2023-05-09T01:40:56.214Z,996.16
2023-05-09T01:41:56.207Z,996.09
2023-05-09T01:42:56.198Z,996.14
2023-05-09T01:43:56.282Z,996.13
2023-05-09T01:44:56.159Z,996.11
2023-05-09T01:45:56.169Z,996.11
2023-05-09T01:46:56.215Z,996.09
2023-05-09T01:47:57.175Z,996.06
2023-05-09T01:48:56.218Z,996.07
2023-05-09T01:49:56.144Z,996.04
2023-05-09T01:50:56.156Z,996.09
2023-05-09T01:51:56.127Z,996.04
2023-05-09T01:52:56.114Z,996.03
2023-05-09T01:53:56.119Z,996.03
2023-05-09T01:54:56.096Z,996.04
2023-05-09T01:55:56.119Z,996.04
2023-05-09T01:56:56.123Z,996.03
2023-05-09T01:57:56.075Z,996.05
2023-05-09T01:58:56.099Z,996.05
2023-05-09T01:59:56.106Z,996.03
2023-05-09T02:00:56.119Z,996.06
2023-05-09T02:01:56.094Z,996.06
2023-05-09T02:02:56.210Z,996.04
2023-05-09T02:03:56.040Z,996.03
2023-05-09T02:04:56.121Z,996.08
2023-05-09T02:05:56.026Z,996.03
2023-05-09T02:06:56.024Z,996.02
2023-05-09T02:07:56.040Z,996.04
2023-05-09T02:08:56.076Z,996.05
2023-05-09T02:09:55.975Z,996.02
2023-05-09T02:10:55.999Z,995.98
2023-05-09T02:11:55.968Z,995.96
2023-05-09T02:12:56.023Z,996.01
2023-05-09T02:13:55.949Z,995.93
2023-05-09T02:14:55.923Z,995.96
2023-05-09T02:15:55.965Z,995.92
2023-05-09T02:16:55.945Z,995.93
2023-05-09T02:17:55.998Z,995.94
2023-05-09T02:18:55.929Z,995.95
2023-05-09T02:19:55.891Z,995.96
2023-05-09T02:20:55.999Z,995.93
2023-05-09T02:21:55.924Z,995.94
2023-05-09T02:22:55.872Z,996.01
2023-05-09T02:23:55.860Z,996.00
2023-05-09T02:24:55.870Z,995.92
2023-05-09T02:25:55.866Z,995.96
2023-05-09T02:26:55.900Z,995.93
2023-05-09T02:27:55.837Z,995.91
2023-05-09T02:28:55.865Z,995.89
2023-05-09T02:29:55.883Z,995.93
2023-05-09T02:30:55.801Z,995.90
2023-05-09T02:31:55.888Z,995.86
2023-05-09T02:32:55.846Z,995.86
2023-05-09T02:33:55.816Z,995.82
2023-05-09T02:34:55.914Z,995.89
2023-05-09T02:35:55.810Z,995.87
2023-05-09T02:36:55.852Z,995.81
2023-05-09T02:37:55.774Z,995.76
2023-05-09T02:38:55.744Z,995.79
2023-05-09T02:39:55.792Z,995.76
2023-05-09T02:40:55.757Z,995.80
2023-05-09T02:41:55.740Z,995.77
2023-05-09T02:42:55.771Z,995.79
2023-05-09T02:43:55.748Z,995.75
2023-05-09T02:44:55.723Z,995.75
2023-05-09T02:45:55.769Z,995.74
2023-05-09T02:46:55.706Z,995.75
2023-05-09T02:47:55.987Z,995.73
2023-05-09T02:48:55.780Z,995.73
2023-05-09T02:49:55.678Z,995.66
2023-05-09T02:50:55.737Z,995.59
2023-05-09T02:51:55.681Z,995.58
2023-05-09T02:52:55.774Z,995.60
2023-05-09T02:53:55.651Z,995.56
2023-05-09T02:54:55.667Z,995.51
2023-05-09T02:55:55.667Z,995.55
2023-05-09T02:56:55.631Z,995.56
2023-05-09T02:58:09.385Z,995.54
2023-05-09T02:58:57.608Z,995.60
2023-05-09T02:59:55.601Z,995.49
2023-05-09T03:00:55.628Z,995.53
2023-05-09T03:01:55.687Z,995.42
2023-05-09T03:02:55.634Z,995.43
2023-05-09T03:03:55.648Z,995.46
2023-05-09T03:04:55.560Z,995.41
2023-05-09T03:05:55.736Z,995.42
2023-05-09T03:06:55.580Z,995.40
2023-05-09T03:07:55.551Z,995.39
2023-05-09T03:08:55.614Z,995.37
2023-05-09T03:09:55.554Z,995.38
2023-05-09T03:10:55.530Z,995.34
2023-05-09T03:11:55.546Z,995.35
2023-05-09T03:12:55.549Z,995.36
2023-05-09T03:13:55.525Z,995.36
2023-05-09T03:14:55.485Z,995.37
2023-05-09T03:15:55.521Z,995.38
2023-05-09T03:16:55.467Z,995.32
2023-05-09T03:17:55.592Z,995.36
2023-05-09T03:18:55.453Z,995.41
2023-05-09T03:19:55.460Z,995.35
2023-05-09T03:20:55.428Z,995.36
2023-05-09T03:21:55.428Z,995.36
2023-05-09T03:22:55.452Z,995.32
2023-05-09T03:23:55.470Z,995.35
2023-05-09T03:24:55.503Z,995.35
2023-05-09T03:25:55.398Z,995.38
2023-05-09T03:26:55.397Z,995.34
2023-05-09T03:27:55.400Z,995.37
2023-05-09T03:28:55.394Z,995.29
2023-05-09T03:29:55.391Z,995.24
2023-05-09T03:30:55.387Z,995.30
2023-05-09T03:31:55.452Z,995.27
2023-05-09T03:32:55.411Z,995.33
2023-05-09T03:33:55.378Z,995.27
2023-05-09T03:34:55.365Z,995.33
2023-05-09T03:35:55.445Z,995.30
2023-05-09T03:36:55.352Z,995.30
2023-05-09T03:37:55.318Z,995.36
2023-05-09T03:38:55.299Z,995.36
2023-05-09T03:39:55.321Z,995.32
2023-05-09T03:40:55.377Z,995.30
2023-05-09T03:41:55.280Z,995.30
2023-05-09T03:42:55.274Z,995.26
2023-05-09T03:43:55.256Z,995.21
2023-05-09T03:44:55.321Z,995.23
2023-05-09T03:45:55.275Z,995.17
2023-05-09T03:46:55.328Z,995.16
2023-05-09T03:47:55.247Z,995.21
2023-05-09T03:48:55.229Z,995.14
2023-05-09T03:49:55.224Z,995.16
2023-05-09T03:50:55.216Z,995.07
2023-05-09T03:51:55.221Z,995.15
2023-05-09T03:52:55.221Z,995.13
2023-05-09T03:53:55.197Z,995.11
2023-05-09T03:54:55.178Z,995.11
2023-05-09T03:55:55.165Z,995.12
2023-05-09T03:56:55.262Z,995.08
2023-05-09T03:57:55.169Z,995.13
2023-05-09T03:58:55.148Z,995.15
2023-05-09T03:59:55.140Z,995.20
2023-05-09T04:00:55.145Z,995.16
2023-05-09T04:01:55.176Z,995.18
2023-05-09T04:02:55.203Z,995.16
2023-05-09T04:03:55.150Z,995.19
2023-05-09T04:04:55.142Z,995.15
2023-05-09T04:05:55.101Z,995.18
2023-05-09T04:06:55.089Z,995.19
2023-05-09T04:07:55.138Z,995.21
2023-05-09T04:08:55.102Z,995.19
2023-05-09T04:09:55.065Z,995.24
2023-05-09T04:10:55.069Z,995.24
2023-05-09T04:11:55.047Z,995.22
2023-05-09T04:12:55.188Z,995.19
2023-05-09T04:13:55.067Z,995.16
2023-05-09T04:14:55.050Z,995.19
2023-05-09T04:15:55.037Z,995.14
2023-05-09T04:16:55.070Z,995.18
2023-05-09T04:17:55.178Z,995.20
2023-05-09T04:18:55.029Z,995.14
2023-05-09T04:19:54.996Z,995.18
2023-05-09T04:20:54.977Z,995.18
2023-05-09T04:21:54.981Z,995.16
2023-05-09T04:22:54.971Z,995.16
2023-05-09T04:23:55.068Z,995.18
2023-05-09T04:24:55.004Z,995.15
2023-05-09T04:25:54.959Z,995.19
2023-05-09T04:26:54.966Z,995.15
2023-05-09T04:27:54.977Z,995.17
2023-05-09T04:28:55.026Z,995.15
2023-05-09T04:29:54.963Z,995.20
2023-05-09T04:30:54.959Z,995.21
2023-05-09T04:31:55.101Z,995.21
2023-05-09T04:32:54.951Z,995.14
2023-05-09T04:33:54.914Z,995.17
2023-05-09T04:34:54.933Z,995.15
2023-05-09T04:35:54.887Z,995.18
2023-05-09T04:36:54.853Z,995.15
2023-05-09T04:37:54.891Z,995.13
2023-05-09T04:38:54.917Z,995.18
2023-05-09T04:39:54.868Z,995.21
2023-05-09T04:40:54.958Z,995.19
2023-05-09T04:41:54.827Z,995.19
2023-05-09T04:42:54.856Z,995.23
2023-05-09T04:43:54.824Z,995.27
2023-05-09T04:44:54.897Z,995.22
2023-05-09T04:45:54.890Z,995.20
2023-05-09T04:46:54.916Z,995.25
2023-05-09T04:47:54.827Z,995.21
2023-05-09T04:48:54.773Z,995.21
2023-05-09T04:49:54.781Z,995.26
2023-05-09T04:50:54.804Z,995.22
2023-05-09T04:51:54.780Z,995.11
2023-05-09T04:52:55.774Z,995.12
2023-05-09T04:53:54.774Z,995.05
2023-05-09T04:54:54.742Z,995.04
2023-05-09T04:55:54.777Z,995.11
2023-05-09T04:57:03.191Z,995.07
2023-05-09T04:57:56.715Z,995.08
2023-05-09T04:58:54.698Z,995.14
2023-05-09T04:59:54.704Z,995.16
2023-05-09T05:00:54.782Z,995.07
2023-05-09T05:01:54.813Z,995.08
2023-05-09T05:02:54.804Z,995.05
2023-05-09T05:03:54.734Z,995.07
2023-05-09T05:05:06.271Z,995.03
2023-05-09T05:05:56.730Z,995.07
2023-05-09T05:06:54.701Z,995.07
2023-05-09T05:07:54.652Z,995.02
2023-05-09T05:08:54.677Z,994.96
2023-05-09T05:09:54.620Z,995.02
2023-05-09T05:10:54.770Z,994.97
2023-05-09T05:12:01.777Z,994.92
2023-05-09T05:12:56.821Z,994.97
2023-05-09T05:13:54.595Z,994.96
2023-05-09T05:14:54.604Z,994.94
2023-05-09T05:15:54.604Z,994.98
2023-05-09T05:16:54.672Z,994.95
2023-05-09T05:17:54.596Z,994.94
2023-05-09T05:18:54.587Z,994.95
2023-05-09T05:19:54.545Z,994.97
2023-05-09T05:20:54.545Z,994.98
2023-05-09T05:21:54.531Z,994.97
2023-05-09T05:22:54.565Z,994.92
2023-05-09T05:23:54.567Z,994.93
2023-05-09T05:24:54.511Z,994.94
2023-05-09T05:25:54.531Z,994.90
2023-05-09T05:26:54.520Z,994.91
2023-05-09T05:27:54.512Z,994.96
2023-05-09T05:28:54.529Z,994.95
2023-05-09T05:29:54.486Z,994.95
2023-05-09T05:30:54.489Z,994.92
2023-05-09T05:31:54.576Z,994.92
2023-05-09T05:32:54.671Z,994.95
2023-05-09T05:33:54.466Z,994.92
2023-05-09T05:34:54.425Z,994.88
2023-05-09T05:35:54.425Z,994.92
2023-05-09T05:36:54.424Z,994.93
2023-05-09T05:37:54.449Z,994.90
2023-05-09T05:38:54.404Z,994.88
2023-05-09T05:39:54.399Z,994.90
2023-05-09T05:40:54.410Z,994.88
2023-05-09T05:41:54.437Z,994.89
2023-05-09T05:42:54.390Z,994.85
2023-05-09T05:43:54.662Z,994.78
2023-05-09T05:44:55.372Z,994.80
2023-05-09T05:45:54.384Z,994.84
2023-05-09T05:46:54.376Z,994.84
2023-05-09T05:47:54.397Z,994.83
2023-05-09T05:48:55.432Z,994.84
2023-05-09T05:49:54.322Z,994.82
2023-05-09T05:50:54.326Z,994.85
2023-05-09T05:51:54.331Z,994.75
2023-05-09T05:52:54.346Z,994.79
2023-05-09T05:53:54.421Z,994.74
2023-05-09T05:54:54.295Z,994.69
2023-05-09T05:55:54.291Z,994.69
2023-05-09T05:56:54.308Z,994.65
2023-05-09T05:57:54.330Z,994.69
2023-05-09T05:58:54.280Z,994.69
2023-05-09T05:59:54.256Z,994.67
2023-05-09T06:00:54.272Z,994.60
2023-05-09T06:01:54.277Z,994.70
2023-05-09T06:02:54.256Z,994.73
2023-05-09T06:03:54.336Z,994.74
2023-05-09T06:04:55.910Z,994.69
2023-05-09T06:05:54.195Z,994.71
2023-05-09T06:06:54.196Z,994.68
2023-05-09T06:07:54.188Z,994.63
2023-05-09T06:08:54.266Z,994.70
2023-05-09T06:09:54.190Z,994.70
2023-05-09T06:10:54.208Z,994.68
2023-05-09T06:11:54.193Z,994.59
2023-05-09T06:12:54.179Z,994.63
2023-05-09T06:13:54.146Z,994.60
2023-05-09T06:14:54.117Z,994.62
2023-05-09T06:15:54.991Z,994.64
2023-05-09T06:16:54.207Z,994.54
2023-05-09T06:17:54.157Z,994.55
2023-05-09T06:18:55.874Z,994.57
2023-05-09T06:19:55.108Z,994.52
2023-05-09T06:20:54.171Z,994.54
2023-05-09T06:21:54.072Z,994.54
2023-05-09T06:22:54.187Z,994.51
2023-05-09T06:24:55.039Z,994.51
2023-05-09T06:25:54.030Z,994.48
2023-05-09T06:26:54.053Z,994.37
2023-05-09T06:27:54.038Z,994.34
2023-05-09T06:28:54.014Z,994.32
2023-05-09T06:29:54.033Z,994.30
2023-05-09T06:30:54.010Z,994.33
2023-05-09T06:31:54.045Z,994.32
2023-05-09T06:32:54.059Z,994.31
2023-05-09T06:33:53.982Z,994.31
2023-05-09T06:34:53.973Z,994.28
2023-05-09T06:35:54.010Z,994.28
2023-05-09T06:36:54.092Z,994.26
2023-05-09T06:37:53.977Z,994.32
2023-05-09T06:38:54.033Z,994.28
2023-05-09T06:39:53.977Z,994.23
2023-05-09T06:40:53.971Z,994.25
2023-05-09T06:41:53.921Z,994.25
2023-05-09T06:42:53.962Z,994.25
2023-05-09T06:43:53.942Z,994.21
2023-05-09T06:44:53.989Z,994.21
2023-05-09T06:45:53.924Z,994.20
2023-05-09T06:46:53.889Z,994.15
2023-05-09T06:47:53.911Z,994.11
2023-05-09T06:48:53.964Z,994.06
2023-05-09T06:49:53.901Z,994.11
2023-05-09T06:50:53.857Z,994.09
2023-05-09T06:51:53.950Z,994.05
2023-05-09T06:52:53.924Z,994.04
2023-05-09T06:53:53.844Z,994.09
2023-05-09T06:54:53.858Z,994.10
2023-05-09T06:55:53.921Z,994.10
2023-05-09T06:56:53.839Z,994.09
2023-05-09T06:57:53.821Z,994.05
2023-05-09T06:58:53.812Z,994.09
2023-05-09T06:59:53.926Z,993.98
2023-05-09T07:00:53.799Z,994.07
2023-05-09T07:01:53.844Z,994.05
2023-05-09T07:02:53.811Z,994.01
2023-05-09T07:03:53.785Z,994.07
2023-05-09T07:04:53.794Z,994.02
2023-05-09T07:05:53.751Z,993.98
2023-05-09T07:06:54.777Z,993.99
2023-05-09T07:07:53.734Z,994.06
2023-05-09T07:08:53.857Z,993.96
2023-05-09T07:10:00.649Z,993.97
2023-05-09T07:10:54.719Z,994.02
2023-05-09T07:11:53.748Z,993.92
2023-05-09T07:12:53.797Z,993.95
2023-05-09T07:13:53.705Z,993.97
2023-05-09T07:14:53.698Z,993.97
2023-05-09T07:15:53.716Z,993.91
2023-05-09T07:16:55.243Z,993.86
2023-05-09T07:17:54.838Z,993.89
2023-05-09T07:18:53.729Z,993.89
2023-05-09T07:19:53.690Z,993.88
2023-05-09T07:20:53.685Z,993.90
2023-05-09T07:21:53.685Z,993.85
2023-05-09T07:22:53.695Z,993.84
2023-05-09T07:23:53.694Z,993.89
2023-05-09T07:24:53.723Z,993.85
2023-05-09T07:25:53.633Z,993.82
2023-05-09T07:26:53.633Z,993.88
2023-05-09T07:27:53.627Z,993.84
2023-05-09T07:28:53.665Z,993.83
2023-05-09T07:29:53.612Z,993.82
2023-05-09T07:30:53.718Z,993.84
2023-05-09T07:31:53.706Z,993.86
2023-05-09T07:32:53.653Z,993.87
2023-05-09T07:33:53.616Z,993.84
2023-05-09T07:34:53.597Z,993.84
2023-05-09T07:35:53.574Z,993.79
2023-05-09T07:36:53.561Z,993.84
2023-05-09T07:37:53.546Z,993.83
2023-05-09T07:38:53.567Z,993.83
2023-05-09T07:39:53.559Z,993.78
2023-05-09T07:40:53.603Z,993.77
2023-05-09T07:41:53.521Z,993.77
2023-05-09T07:42:53.521Z,993.81
2023-05-09T07:43:53.534Z,993.75
2023-05-09T07:44:53.637Z,993.82
2023-05-09T07:45:53.567Z,993.72
2023-05-09T07:46:53.492Z,993.75
2023-05-09T07:47:53.513Z,993.64
2023-05-09T07:48:53.518Z,993.66
2023-05-09T07:49:53.591Z,993.67
2023-05-09T07:50:53.475Z,993.65
2023-05-09T07:51:53.466Z,993.66
2023-05-09T07:52:54.463Z,993.66
2023-05-09T07:53:53.469Z,993.64
2023-05-09T07:54:53.718Z,993.59
2023-05-09T07:55:53.446Z,993.61
2023-05-09T07:56:53.516Z,993.59
2023-05-09T07:57:53.489Z,993.61
2023-05-09T07:58:55.598Z,993.58
2023-05-09T07:59:54.457Z,993.59
2023-05-09T08:00:53.400Z,993.50
2023-05-09T08:01:53.490Z,993.53
2023-05-09T08:02:53.483Z,993.48
2023-05-09T08:03:53.442Z,993.44
2023-05-09T08:04:53.401Z,993.43
2023-05-09T08:05:53.377Z,993.46
2023-05-09T08:06:53.729Z,993.46
2023-05-09T08:07:53.361Z,993.46
2023-05-09T08:08:53.358Z,993.38
2023-05-09T08:09:53.362Z,993.39
2023-05-09T08:10:53.384Z,993.44
2023-05-09T08:11:53.410Z,993.33
2023-05-09T08:12:53.450Z,993.42
2023-05-09T08:13:53.334Z,993.34
2023-05-09T08:14:53.338Z,993.33
2023-05-09T08:15:53.368Z,993.34
2023-05-09T08:16:53.327Z,993.29
2023-05-09T08:17:53.384Z,993.31
2023-05-09T08:18:53.313Z,993.24
2023-05-09T08:19:53.309Z,993.20
2023-05-09T08:20:53.303Z,993.19
2023-05-09T08:21:53.323Z,993.20
2023-05-09T08:22:53.306Z,993.12
2023-05-09T08:23:53.311Z,993.15
2023-05-09T08:24:53.265Z,993.05
2023-05-09T08:25:53.282Z,993.10
2023-05-09T08:26:53.280Z,993.05
2023-05-09T08:27:53.282Z,993.09
2023-05-09T08:28:53.330Z,993.05
2023-05-09T08:29:53.252Z,993.02
2023-05-09T08:30:53.226Z,993.09
2023-05-09T08:31:53.400Z,993.07
2023-05-09T08:32:53.268Z,993.06
2023-05-09T08:33:53.388Z,993.00
2023-05-09T08:34:53.213Z,993.09
2023-05-09T08:35:53.203Z,993.02
2023-05-09T08:36:53.263Z,992.99
2023-05-09T08:37:53.196Z,993.01
2023-05-09T08:38:53.477Z,992.97
2023-05-09T08:39:53.196Z,992.96
2023-05-09T08:40:53.175Z,992.99
2023-05-09T08:41:53.162Z,992.95
2023-05-09T08:42:53.168Z,992.98
2023-05-09T08:43:53.154Z,992.95
2023-05-09T08:44:53.244Z,992.94
2023-05-09T08:45:53.183Z,992.94
2023-05-09T08:46:53.158Z,992.86
2023-05-09T08:47:53.181Z,992.87
2023-05-09T08:48:53.112Z,992.89
2023-05-09T08:49:53.145Z,992.84
2023-05-09T08:50:53.113Z,992.87
2023-05-09T08:51:53.112Z,992.87
2023-05-09T08:52:53.111Z,992.86
2023-05-09T08:53:53.123Z,992.84
2023-05-09T08:54:53.110Z,992.81
2023-05-09T08:55:53.140Z,992.76
2023-05-09T08:56:53.090Z,992.72
2023-05-09T08:57:53.095Z,992.70
2023-05-09T08:58:53.121Z,992.63
2023-05-09T08:59:53.107Z,992.65
2023-05-09T09:00:53.139Z,992.56
2023-05-09T09:01:53.050Z,992.56
2023-05-09T09:02:53.129Z,992.49
2023-05-09T09:03:53.044Z,992.43
2023-05-09T09:04:53.071Z,992.49
2023-05-09T09:05:53.107Z,992.44
2023-05-09T09:06:53.012Z,992.50
2023-05-09T09:07:53.015Z,992.46
2023-05-09T09:08:53.013Z,992.51
2023-05-09T09:09:52.992Z,992.50
2023-05-09T09:10:53.027Z,992.42
2023-05-09T09:11:52.980Z,992.49
2023-05-09T09:12:53.022Z,992.47
2023-05-09T09:13:53.068Z,992.48
2023-05-09T09:14:53.107Z,992.51
2023-05-09T09:15:52.943Z,992.42
2023-05-09T09:16:53.143Z,992.37
2023-05-09T09:17:52.993Z,992.44
2023-05-09T09:18:52.951Z,992.32
2023-05-09T09:19:52.937Z,992.34
2023-05-09T09:20:52.930Z,992.31
2023-05-09T09:21:52.940Z,992.31
2023-05-09T09:22:52.918Z,992.31
2023-05-09T09:23:52.928Z,992.36
2023-05-09T09:24:52.980Z,992.29
2023-05-09T09:25:52.895Z,992.27
2023-05-09T09:26:52.942Z,992.29
2023-05-09T09:27:52.905Z,992.23
2023-05-09T09:28:52.878Z,992.16
2023-05-09T09:29:52.912Z,992.16
2023-05-09T09:30:52.908Z,992.15
2023-05-09T09:31:52.930Z,992.10
2023-05-09T09:32:52.998Z,992.10
2023-05-09T09:33:52.836Z,992.08
2023-05-09T09:34:52.903Z,992.00
2023-05-09T09:35:52.923Z,992.06
2023-05-09T09:36:52.871Z,992.01
2023-05-09T09:37:52.806Z,991.95
2023-05-09T09:38:52.838Z,992.00
2023-05-09T09:39:52.805Z,991.87
2023-05-09T09:40:52.806Z,991.92
2023-05-09T09:41:52.787Z,991.96
2023-05-09T09:42:52.832Z,991.87
2023-05-09T09:43:52.868Z,991.84
2023-05-09T09:44:52.773Z,991.86
2023-05-09T09:45:52.849Z,991.91
2023-05-09T09:46:52.762Z,991.90
2023-05-09T09:47:52.795Z,991.78
2023-05-09T09:48:52.894Z,991.88
2023-05-09T09:49:52.752Z,991.80
2023-05-09T09:50:52.723Z,991.83
2023-05-09T09:51:52.712Z,991.74
2023-05-09T09:52:52.713Z,991.80
2023-05-09T09:53:52.763Z,991.85
2023-05-09T09:54:52.781Z,991.75
2023-05-09T09:55:52.724Z,991.74
2023-05-09T09:56:52.820Z,991.75
2023-05-09T09:57:52.692Z,991.77
2023-05-09T09:58:53.691Z,991.76
2023-05-09T09:59:52.706Z,991.67
2023-05-09T10:00:52.719Z,991.69
2023-05-09T10:01:52.673Z,991.70
2023-05-09T10:02:52.759Z,991.65
2023-05-09T10:03:52.725Z,991.58
2023-05-09T10:04:52.791Z,991.69
2023-05-09T10:05:52.683Z,991.60
2023-05-09T10:06:52.663Z,991.63
2023-05-09T10:07:52.637Z,991.62
2023-05-09T10:08:52.627Z,991.68
2023-05-09T10:09:52.635Z,991.68
2023-05-09T10:10:52.625Z,991.63
2023-05-09T10:11:52.636Z,991.65
2023-05-09T10:12:52.619Z,991.54
2023-05-09T10:13:52.585Z,991.57
2023-05-09T10:14:52.596Z,991.59
2023-05-09T10:15:53.858Z,991.58
2023-05-09T10:16:53.767Z,991.51
2023-05-09T10:17:52.778Z,991.54
2023-05-09T10:18:52.662Z,991.51
2023-05-09T10:19:52.557Z,991.46
2023-05-09T10:20:52.699Z,991.45
2023-05-09T10:21:52.564Z,991.47
2023-05-09T10:22:52.536Z,991.45
2023-05-09T10:23:52.554Z,991.43
2023-05-09T10:24:52.504Z,991.50
2023-05-09T10:25:52.521Z,991.46
2023-05-09T10:26:52.549Z,991.46
2023-05-09T10:27:52.665Z,991.37
2023-05-09T10:28:52.491Z,991.39
2023-05-09T10:29:52.493Z,991.36
2023-05-09T10:30:52.500Z,991.38
2023-05-09T10:31:52.520Z,991.35
2023-05-09T10:32:52.539Z,991.32
2023-05-09T10:33:52.444Z,991.29
2023-05-09T10:34:52.455Z,991.33
2023-05-09T10:35:52.468Z,991.29
2023-05-09T10:36:52.501Z,991.26
2023-05-09T10:37:52.452Z,991.31
2023-05-09T10:38:52.471Z,991.22
2023-05-09T10:39:52.436Z,991.19
2023-05-09T10:40:52.397Z,991.18
2023-05-09T10:41:52.403Z,991.13
2023-05-09T10:42:52.412Z,991.10
2023-05-09T10:43:52.389Z,991.13
2023-05-09T10:44:52.419Z,991.16
2023-05-09T10:45:52.423Z,991.13
2023-05-09T10:46:52.395Z,991.12
2023-05-09T10:47:52.484Z,991.15
2023-05-09T10:48:52.363Z,991.14
2023-05-09T10:49:52.363Z,991.10
2023-05-09T10:50:52.368Z,991.15
2023-05-09T10:51:52.322Z,991.11
2023-05-09T10:52:52.439Z,991.08
2023-05-09T10:53:52.381Z,991.04
2023-05-09T10:54:52.384Z,991.08
2023-05-09T10:55:52.402Z,991.07
2023-05-09T10:56:52.291Z,991.08
2023-05-09T10:57:52.333Z,991.03
2023-05-09T10:58:52.318Z,991.12
2023-05-09T10:59:52.326Z,991.06
2023-05-09T11:00:55.183Z,991.08
2023-05-09T11:01:53.388Z,991.01
2023-05-09T11:02:52.340Z,991.01
2023-05-09T11:03:52.368Z,990.97
2023-05-09T11:04:52.307Z,990.95
2023-05-09T11:05:52.356Z,991.03
2023-05-09T11:06:52.454Z,990.90
2023-05-09T11:07:52.226Z,990.95
2023-05-09T11:08:52.371Z,990.87
2023-05-09T11:09:52.870Z,990.94
2023-05-09T11:10:52.216Z,990.92
2023-05-09T11:11:52.208Z,990.92
2023-05-09T11:12:52.203Z,990.89
2023-05-09T11:13:52.246Z,990.90
2023-05-09T11:14:52.208Z,990.87
2023-05-09T11:15:52.195Z,990.80
2023-05-09T11:16:52.318Z,990.86
2023-05-09T11:17:52.218Z,990.89
2023-05-09T11:18:52.163Z,990.93
2023-05-09T11:19:52.160Z,990.85
2023-05-09T11:20:52.227Z,990.78
2023-05-09T11:21:52.135Z,990.80
2023-05-09T11:22:52.176Z,990.77
2023-05-09T11:23:54.487Z,990.82
2023-05-09T11:24:53.303Z,990.75
2023-05-09T11:25:52.151Z,990.80
2023-05-09T11:26:52.101Z,990.81
2023-05-09T11:27:52.165Z,990.69
2023-05-09T11:28:52.107Z,990.70
2023-05-09T11:29:52.099Z,990.68
2023-05-09T11:30:52.119Z,990.68
2023-05-09T11:31:52.096Z,990.63
2023-05-09T11:32:52.130Z,990.60
2023-05-09T11:33:52.065Z,990.55
2023-05-09T11:34:52.042Z,990.63
2023-05-09T11:35:52.092Z,990.47
2023-05-09T11:36:52.043Z,990.55
2023-05-09T11:37:52.056Z,990.56
2023-05-09T11:38:52.051Z,990.58
2023-05-09T11:39:52.009Z,990.49
2023-05-09T11:40:52.095Z,990.47
2023-05-09T11:41:51.997Z,990.44
2023-05-09T11:42:51.998Z,990.43
2023-05-09T11:43:52.009Z,990.48
2023-05-09T11:44:51.985Z,990.44
2023-05-09T11:45:52.000Z,990.42
2023-05-09T11:46:52.012Z,990.47
2023-05-09T11:47:52.967Z,990.39
2023-05-09T11:48:51.975Z,990.33
2023-05-09T11:49:51.987Z,990.37
2023-05-09T11:50:51.937Z,990.34
2023-05-09T11:51:51.948Z,990.29
2023-05-09T11:52:51.996Z,990.32
2023-05-09T11:53:51.932Z,990.29
2023-05-09T11:54:51.969Z,990.35
2023-05-09T11:55:51.912Z,990.39
2023-05-09T11:56:52.016Z,990.29
2023-05-09T11:57:51.928Z,990.30
2023-05-09T11:58:51.940Z,990.22
2023-05-09T11:59:51.894Z,990.23
2023-05-09T12:00:51.900Z,990.18
2023-05-09T12:01:51.865Z,990.27
2023-05-09T12:02:51.934Z,990.21
2023-05-09T12:03:51.992Z,990.13
2023-05-09T12:04:51.840Z,990.11
2023-05-09T12:05:51.861Z,990.15
2023-05-09T12:06:51.827Z,990.11
2023-05-09T12:07:51.867Z,990.15
2023-05-09T12:08:51.994Z,990.15
2023-05-09T12:09:51.827Z,990.04
2023-05-09T12:10:51.811Z,990.08
2023-05-09T12:11:51.808Z,990.05
2023-05-09T12:12:51.905Z,990.03
2023-05-09T12:13:51.784Z,990.09
2023-05-09T12:14:51.960Z,990.01
2023-05-09T12:15:51.878Z,990.05
2023-05-09T12:16:51.776Z,989.95
2023-05-09T12:17:52.168Z,990.01
2023-05-09T12:18:52.798Z,989.97
2023-05-09T12:19:51.778Z,989.96
2023-05-09T12:20:51.727Z,989.90
2023-05-09T12:21:51.719Z,989.89
2023-05-09T12:22:51.709Z,989.91
2023-05-09T12:23:53.200Z,989.88
2023-05-09T12:24:52.723Z,989.92
2023-05-09T12:25:51.679Z,989.89
2023-05-09T12:26:51.676Z,989.80
2023-05-09T12:27:51.668Z,989.82
2023-05-09T12:28:52.744Z,989.80
2023-05-09T12:29:54.348Z,989.76